sensor_id;sensor_type;location;lat;lon;timestamp;pressure;altitude;pressure_sealevel;temperature;humidity
29417;BME280;28421;51.030;4.006;2023-06-10T00:01:00;101249.81;;;21.14;53.18
29417;BME280;28421;51.030;4.006;2023-06-10T00:03:26;101249.59;;;21.16;53.85
29417;BME280;28421;51.030;4.006;2023-06-10T00:05:52;101247.19;;;21.07;53.88
29417;BME280;28421;51.030;4.006;2023-06-10T00:08:17;101257.09;;;21.20;53.57
29417;BME280;28421;51.030;4.006;2023-06-10T00:10:45;101255.53;;;21.13;53.05
29417;BME280;28421;51.030;4.006;2023-06-10T00:13:11;101240.19;;;21.12;53.66
29417;BME280;28421;51.030;4.006;2023-06-10T00:15:37;101256.22;;;21.08;53.54
29417;BME280;28421;51.030;4.006;2023-06-10T00:18:03;101243.38;;;21.08;53.95
29417;BME280;28421;51.030;4.006;2023-06-10T00:20:30;101247.56;;;21.11;53.49
29417;BME280;28421;51.030;4.006;2023-06-10T00:22:57;101254.91;;;21.10;54.24
29417;BME280;28421;51.030;4.006;2023-06-10T00:25:24;101259.66;;;21.03;54.40
29417;BME280;28421;51.030;4.006;2023-06-10T00:27:51;101245.72;;;20.75;54.70
29417;BME280;28421;51.030;4.006;2023-06-10T00:30:16;101264.53;;;20.83;54.86
29417;BME280;28421;51.030;4.006;2023-06-10T00:32:42;101236.50;;;20.57;54.89
29417;BME280;28421;51.030;4.006;2023-06-10T00:35:07;101255.22;;;20.72;55.01
29417;BME280;28421;51.030;4.006;2023-06-10T00:37:33;101262.50;;;20.78;54.43
29417;BME280;28421;51.030;4.006;2023-06-10T00:40:02;101240.88;;;20.58;54.71
29417;BME280;28421;51.030;4.006;2023-06-10T00:42:27;101251.25;;;20.68;54.53
29417;BME280;28421;51.030;4.006;2023-06-10T00:44:54;101264.84;;;20.75;54.76
29417;BME280;28421;51.030;4.006;2023-06-10T00:47:20;101208.03;;;20.28;54.59
29417;BME280;28421;51.030;4.006;2023-06-10T00:49:47;101258.03;;;20.66;54.46
29417;BME280;28421;51.030;4.006;2023-06-10T00:52:14;101247.13;;;20.66;54.89
29417;BME280;28421;51.030;4.006;2023-06-10T00:54:41;101240.25;;;20.56;55.06
29417;BME280;28421;51.030;4.006;2023-06-10T00:57:07;101251.81;;;20.58;54.82
29417;BME280;28421;51.030;4.006;2023-06-10T00:59:34;101257.19;;;20.65;54.89
29417;BME280;28421;51.030;4.006;2023-06-10T01:02:00;101254.25;;;20.67;54.94
29417;BME280;28421;51.030;4.006;2023-06-10T01:04:28;101236.16;;;20.47;55.38
29417;BME280;28421;51.030;4.006;2023-06-10T01:07:08;101260.84;;;20.59;55.83
29417;BME280;28421;51.030;4.006;2023-06-10T01:10:04;101259.63;;;20.55;55.52
29417;BME280;28421;51.030;4.006;2023-06-10T01:12:52;101262.25;;;20.43;55.51
29417;BME280;28421;51.030;4.006;2023-06-10T01:15:22;101245.47;;;20.40;55.64
29417;BME280;28421;51.030;4.006;2023-06-10T01:17:57;101264.00;;;20.38;56.13
29417;BME280;28421;51.030;4.006;2023-06-10T01:20:28;101264.88;;;20.31;56.20
29417;BME280;28421;51.030;4.006;2023-06-10T01:22:56;101219.59;;;20.05;56.78
29417;BME280;28421;51.030;4.006;2023-06-10T01:25:24;101197.47;;;19.95;56.27
29417;BME280;28421;51.030;4.006;2023-06-10T01:33:29;101221.56;;;19.98;56.79
29417;BME280;28421;51.030;4.006;2023-06-10T01:35:57;101245.16;;;20.11;57.00
29417;BME280;28421;51.030;4.006;2023-06-10T01:38:25;101262.53;;;20.17;57.14
29417;BME280;28421;51.030;4.006;2023-06-10T01:40:53;101237.72;;;20.00;57.42
29417;BME280;28421;51.030;4.006;2023-06-10T01:43:20;101241.59;;;20.10;57.41
29417;BME280;28421;51.030;4.006;2023-06-10T01:45:45;101265.41;;;20.03;57.90
29417;BME280;28421;51.030;4.006;2023-06-10T01:48:11;101242.16;;;19.94;58.04
29417;BME280;28421;51.030;4.006;2023-06-10T01:50:36;101250.47;;;19.81;58.24
29417;BME280;28421;51.030;4.006;2023-06-10T01:53:03;101251.09;;;19.83;58.48
29417;BME280;28421;51.030;4.006;2023-06-10T01:55:29;101257.25;;;19.78;58.98
29417;BME280;28421;51.030;4.006;2023-06-10T01:57:55;101277.28;;;19.91;58.89
29417;BME280;28421;51.030;4.006;2023-06-10T02:00:20;101243.47;;;19.67;59.03
29417;BME280;28421;51.030;4.006;2023-06-10T02:02:46;101243.88;;;19.70;58.97
29417;BME280;28421;51.030;4.006;2023-06-10T02:05:11;101266.69;;;19.76;59.48
29417;BME280;28421;51.030;4.006;2023-06-10T02:07:36;101268.19;;;19.72;59.30
29417;BME280;28421;51.030;4.006;2023-06-10T02:10:04;101248.78;;;19.55;59.56
29417;BME280;28421;51.030;4.006;2023-06-10T02:12:29;101265.31;;;19.67;59.64
29417;BME280;28421;51.030;4.006;2023-06-10T02:14:54;101270.69;;;19.73;59.55
29417;BME280;28421;51.030;4.006;2023-06-10T02:17:20;101255.69;;;19.57;59.87
29417;BME280;28421;51.030;4.006;2023-06-10T02:19:45;101256.09;;;19.61;60.15
29417;BME280;28421;51.030;4.006;2023-06-10T02:22:20;101247.50;;;19.57;59.78
29417;BME280;28421;51.030;4.006;2023-06-10T02:24:46;101244.88;;;19.44;60.31
29417;BME280;28421;51.030;4.006;2023-06-10T02:27:12;101275.81;;;19.63;60.10
29417;BME280;28421;51.030;4.006;2023-06-10T02:29:38;101275.00;;;19.63;60.39
29417;BME280;28421;51.030;4.006;2023-06-10T02:32:04;101251.63;;;19.42;60.75
29417;BME280;28421;51.030;4.006;2023-06-10T02:34:30;101261.28;;;19.37;60.94
29417;BME280;28421;51.030;4.006;2023-06-10T02:36:57;101253.53;;;19.34;61.16
29417;BME280;28421;51.030;4.006;2023-06-10T02:39:24;101266.69;;;19.44;61.35
29417;BME280;28421;51.030;4.006;2023-06-10T02:41:50;101270.91;;;19.40;61.70
29417;BME280;28421;51.030;4.006;2023-06-10T02:44:18;101278.31;;;19.33;61.72
29417;BME280;28421;51.030;4.006;2023-06-10T02:46:44;101252.16;;;19.19;62.04
29417;BME280;28421;51.030;4.006;2023-06-10T02:49:11;101256.38;;;19.15;62.11
29417;BME280;28421;51.030;4.006;2023-06-10T02:51:36;101252.47;;;19.04;62.92
29417;BME280;28421;51.030;4.006;2023-06-10T02:54:03;101284.72;;;19.13;62.85
29417;BME280;28421;51.030;4.006;2023-06-10T02:56:28;101240.97;;;18.95;62.87
29417;BME280;28421;51.030;4.006;2023-06-10T02:58:57;101257.97;;;18.97;62.86
29417;BME280;28421;51.030;4.006;2023-06-10T03:01:25;101273.63;;;19.08;62.52
29417;BME280;28421;51.030;4.006;2023-06-10T03:03:59;101287.03;;;19.10;63.14
29417;BME280;28421;51.030;4.006;2023-06-10T03:06:25;101287.69;;;18.99;63.18
29417;BME280;28421;51.030;4.006;2023-06-10T03:08:55;101242.75;;;18.76;63.44
29417;BME280;28421;51.030;4.006;2023-06-10T03:11:21;101277.44;;;19.01;63.77
29417;BME280;28421;51.030;4.006;2023-06-10T03:13:47;101273.66;;;18.95;63.83
29417;BME280;28421;51.030;4.006;2023-06-10T03:16:16;101272.53;;;18.71;64.37
29417;BME280;28421;51.030;4.006;2023-06-10T03:18:42;101275.69;;;18.75;64.73
29417;BME280;28421;51.030;4.006;2023-06-10T03:21:08;101289.44;;;18.86;64.74
29417;BME280;28421;51.030;4.006;2023-06-10T03:23:35;101264.16;;;18.73;64.35
29417;BME280;28421;51.030;4.006;2023-06-10T03:26:01;101256.41;;;18.63;64.88
29417;BME280;28421;51.030;4.006;2023-06-10T03:28:28;101281.50;;;18.85;64.59
29417;BME280;28421;51.030;4.006;2023-06-10T03:30:54;101290.91;;;18.82;65.00
29417;BME280;28421;51.030;4.006;2023-06-10T03:33:22;101277.53;;;18.74;65.17
29417;BME280;28421;51.030;4.006;2023-06-10T03:35:48;101281.31;;;18.80;65.02
29417;BME280;28421;51.030;4.006;2023-06-10T03:38:14;101298.72;;;18.79;65.22
29417;BME280;28421;51.030;4.006;2023-06-10T03:40:40;101272.53;;;18.64;65.20
29417;BME280;28421;51.030;4.006;2023-06-10T03:43:06;101274.66;;;18.56;66.10
29417;BME280;28421;51.030;4.006;2023-06-10T03:45:31;101272.13;;;18.61;66.02
29417;BME280;28421;51.030;4.006;2023-06-10T03:47:58;101276.53;;;18.55;65.92
29417;BME280;28421;51.030;4.006;2023-06-10T03:50:29;101292.41;;;18.65;65.95
29417;BME280;28421;51.030;4.006;2023-06-10T03:52:55;101290.97;;;18.76;65.78
29417;BME280;28421;51.030;4.006;2023-06-10T03:55:24;101273.16;;;18.67;65.83
29417;BME280;28421;51.030;4.006;2023-06-10T03:57:50;101277.97;;;18.64;65.84
29417;BME280;28421;51.030;4.006;2023-06-10T04:00:17;101285.34;;;18.71;65.99
29417;BME280;28421;51.030;4.006;2023-06-10T04:02:43;101302.69;;;18.83;66.00
29417;BME280;28421;51.030;4.006;2023-06-10T04:05:29;101288.66;;;18.79;65.73
29417;BME280;28421;51.030;4.006;2023-06-10T04:07:56;101262.69;;;18.63;66.05
29417;BME280;28421;51.030;4.006;2023-06-10T04:10:22;101283.63;;;18.76;65.87
29417;BME280;28421;51.030;4.006;2023-06-10T04:12:47;101290.72;;;18.84;65.75
29417;BME280;28421;51.030;4.006;2023-06-10T04:15:13;101304.28;;;18.97;65.83
29417;BME280;28421;51.030;4.006;2023-06-10T04:17:39;101292.97;;;18.94;65.85
29417;BME280;28421;51.030;4.006;2023-06-10T04:20:06;101295.28;;;18.90;65.91
29417;BME280;28421;51.030;4.006;2023-06-10T04:22:33;101313.03;;;19.06;65.70
29417;BME280;28421;51.030;4.006;2023-06-10T04:24:59;101307.19;;;19.02;65.71
29417;BME280;28421;51.030;4.006;2023-06-10T04:27:24;101305.94;;;18.98;65.97
29417;BME280;28421;51.030;4.006;2023-06-10T04:29:50;101304.88;;;19.06;65.65
29417;BME280;28421;51.030;4.006;2023-06-10T04:32:16;101320.53;;;19.17;65.68
29417;BME280;28421;51.030;4.006;2023-06-10T04:34:42;101323.44;;;19.29;65.25
29417;BME280;28421;51.030;4.006;2023-06-10T04:37:07;101308.34;;;19.26;65.14
29417;BME280;28421;51.030;4.006;2023-06-10T04:39:33;101319.63;;;19.30;64.96
29417;BME280;28421;51.030;4.006;2023-06-10T04:42:02;101314.63;;;19.27;64.91
29417;BME280;28421;51.030;4.006;2023-06-10T04:44:28;101310.00;;;19.27;64.55
29417;BME280;28421;51.030;4.006;2023-06-10T04:46:56;101315.00;;;19.37;64.55
29417;BME280;28421;51.030;4.006;2023-06-10T04:49:22;101289.16;;;19.40;64.10
29417;BME280;28421;51.030;4.006;2023-06-10T04:51:47;101335.97;;;19.75;64.07
29417;BME280;28421;51.030;4.006;2023-06-10T04:54:13;101310.34;;;19.76;63.93
29417;BME280;28421;51.030;4.006;2023-06-10T04:56:38;101332.97;;;19.83;64.42
29417;BME280;28421;51.030;4.006;2023-06-10T04:59:05;101340.13;;;19.77;64.19
29417;BME280;28421;51.030;4.006;2023-06-10T05:01:31;101321.00;;;19.84;63.55
29417;BME280;28421;51.030;4.006;2023-06-10T05:03:56;101343.22;;;19.88;63.67
29417;BME280;28421;51.030;4.006;2023-06-10T05:06:21;101318.53;;;19.76;63.83
29417;BME280;28421;51.030;4.006;2023-06-10T05:08:47;101329.03;;;20.04;63.26
29417;BME280;28421;51.030;4.006;2023-06-10T05:11:12;101326.19;;;19.92;63.80
29417;BME280;28421;51.030;4.006;2023-06-10T05:13:38;101312.25;;;20.00;63.14
29417;BME280;28421;51.030;4.006;2023-06-10T05:16:05;101330.13;;;20.21;63.39
29417;BME280;28421;51.030;4.006;2023-06-10T05:18:31;101287.69;;;20.00;63.01
29417;BME280;28421;51.030;4.006;2023-06-10T05:20:57;101321.84;;;20.28;62.68
29417;BME280;28421;51.030;4.006;2023-06-10T05:23:22;101335.50;;;20.28;62.76
29417;BME280;28421;51.030;4.006;2023-06-10T05:25:48;101302.81;;;20.21;62.75
29417;BME280;28421;51.030;4.006;2023-06-10T05:28:13;101332.03;;;20.39;62.37
29417;BME280;28421;51.030;4.006;2023-06-10T05:30:39;101334.06;;;20.50;61.82
29417;BME280;28421;51.030;4.006;2023-06-10T05:33:04;101336.81;;;20.44;61.63
29417;BME280;28421;51.030;4.006;2023-06-10T05:35:30;101313.16;;;20.38;61.64
29417;BME280;28421;51.030;4.006;2023-06-10T05:37:56;101322.13;;;20.45;61.62
29417;BME280;28421;51.030;4.006;2023-06-10T05:40:21;101331.09;;;20.52;61.13
29417;BME280;28421;51.030;4.006;2023-06-10T05:42:47;101335.13;;;20.68;61.03
29417;BME280;28421;51.030;4.006;2023-06-10T05:45:12;101329.81;;;20.54;60.85
29417;BME280;28421;51.030;4.006;2023-06-10T05:47:38;101343.47;;;20.73;60.76
29417;BME280;28421;51.030;4.006;2023-06-10T05:50:04;101341.97;;;20.77;60.89
29417;BME280;28421;51.030;4.006;2023-06-10T05:52:33;101290.66;;;20.60;60.97
29417;BME280;28421;51.030;4.006;2023-06-10T05:54:59;101331.03;;;20.77;60.79
29417;BME280;28421;51.030;4.006;2023-06-10T05:57:25;101332.09;;;20.76;60.23
29417;BME280;28421;51.030;4.006;2023-06-10T05:59:51;101357.38;;;20.90;60.19
29417;BME280;28421;51.030;4.006;2023-06-10T06:02:17;101349.50;;;21.00;60.35
29417;BME280;28421;51.030;4.006;2023-06-10T06:04:43;101353.00;;;21.07;60.18
29417;BME280;28421;51.030;4.006;2023-06-10T06:07:08;101353.06;;;21.00;59.93
29417;BME280;28421;51.030;4.006;2023-06-10T06:09:34;101340.28;;;21.13;60.23
29417;BME280;28421;51.030;4.006;2023-06-10T06:12:00;101341.31;;;21.30;59.76
29417;BME280;28421;51.030;4.006;2023-06-10T06:14:25;101344.06;;;21.30;60.00
29417;BME280;28421;51.030;4.006;2023-06-10T06:16:50;101335.56;;;21.38;59.12
29417;BME280;28421;51.030;4.006;2023-06-10T06:19:16;101344.59;;;21.39;58.81
29417;BME280;28421;51.030;4.006;2023-06-10T06:21:41;101353.63;;;21.39;59.18
29417;BME280;28421;51.030;4.006;2023-06-10T06:24:07;101349.03;;;21.51;58.96
29417;BME280;28421;51.030;4.006;2023-06-10T06:26:32;101356.84;;;21.66;58.75
29417;BME280;28421;51.030;4.006;2023-06-10T06:28:57;101335.31;;;21.40;58.02
29417;BME280;28421;51.030;4.006;2023-06-10T06:31:23;101306.66;;;21.42;57.67
29417;BME280;28421;51.030;4.006;2023-06-10T06:33:49;101356.63;;;21.79;58.08
29417;BME280;28421;51.030;4.006;2023-06-10T06:36:14;101331.38;;;21.66;58.07
29417;BME280;28421;51.030;4.006;2023-06-10T06:38:40;101352.00;;;21.92;57.91
29417;BME280;28421;51.030;4.006;2023-06-10T06:41:05;101343.34;;;21.95;57.89
29417;BME280;28421;51.030;4.006;2023-06-10T06:43:32;101366.28;;;21.94;57.64
29417;BME280;28421;51.030;4.006;2023-06-10T06:46:23;101362.53;;;22.06;57.11
29417;BME280;28421;51.030;4.006;2023-06-10T06:48:48;101341.81;;;22.11;57.36
29417;BME280;28421;51.030;4.006;2023-06-10T06:51:14;101362.78;;;22.17;56.77
29417;BME280;28421;51.030;4.006;2023-06-10T06:53:39;101364.72;;;22.28;56.93
29417;BME280;28421;51.030;4.006;2023-06-10T06:56:13;101367.81;;;22.43;56.81
29417;BME280;28421;51.030;4.006;2023-06-10T06:58:38;101347.22;;;22.41;56.15
29417;BME280;28421;51.030;4.006;2023-06-10T07:01:04;101359.47;;;22.38;55.97
29417;BME280;28421;51.030;4.006;2023-06-10T07:03:29;101374.38;;;22.66;56.03
29417;BME280;28421;51.030;4.006;2023-06-10T07:05:55;101369.59;;;22.73;56.24
29417;BME280;28421;51.030;4.006;2023-06-10T07:08:20;101357.53;;;22.86;55.48
29417;BME280;28421;51.030;4.006;2023-06-10T07:10:46;101361.25;;;22.91;55.46
29417;BME280;28421;51.030;4.006;2023-06-10T07:13:11;101360.41;;;22.91;53.29
29417;BME280;28421;51.030;4.006;2023-06-10T07:15:38;101371.81;;;23.11;54.08
29417;BME280;28421;51.030;4.006;2023-06-10T07:18:04;101360.69;;;23.18;52.99
29417;BME280;28421;51.030;4.006;2023-06-10T07:20:30;101371.94;;;23.45;53.36
29417;BME280;28421;51.030;4.006;2023-06-10T07:22:55;101363.56;;;23.51;53.43
29417;BME280;28421;51.030;4.006;2023-06-10T07:25:21;101366.97;;;23.58;51.69
29417;BME280;28421;51.030;4.006;2023-06-10T07:27:46;101321.03;;;23.37;51.35
29417;BME280;28421;51.030;4.006;2023-06-10T07:30:12;101359.22;;;23.55;51.36
29417;BME280;28421;51.030;4.006;2023-06-10T07:32:37;101356.00;;;23.87;51.35
29417;BME280;28421;51.030;4.006;2023-06-10T07:35:06;101373.50;;;24.15;50.76
29417;BME280;28421;51.030;4.006;2023-06-10T07:37:31;101361.00;;;24.24;50.40
29417;BME280;28421;51.030;4.006;2023-06-10T07:39:57;101360.66;;;24.37;49.62
29417;BME280;28421;51.030;4.006;2023-06-10T07:42:22;101369.50;;;24.56;49.85
29417;BME280;28421;51.030;4.006;2023-06-10T07:44:47;101371.97;;;24.58;47.97
29417;BME280;28421;51.030;4.006;2023-06-10T07:47:13;101372.16;;;24.68;47.86
29417;BME280;28421;51.030;4.006;2023-06-10T07:49:38;101321.50;;;24.64;48.22
29417;BME280;28421;51.030;4.006;2023-06-10T07:52:05;101355.88;;;24.88;47.86
29417;BME280;28421;51.030;4.006;2023-06-10T07:54:30;101366.88;;;25.05;48.09
29417;BME280;28421;51.030;4.006;2023-06-10T07:56:56;101387.72;;;25.01;46.27
29417;BME280;28421;51.030;4.006;2023-06-10T07:59:21;101363.16;;;24.55;46.13
29417;BME280;28421;51.030;4.006;2023-06-10T08:01:47;101362.03;;;24.95;46.78
29417;BME280;28421;51.030;4.006;2023-06-10T08:04:12;101386.81;;;25.17;47.80
29417;BME280;28421;51.030;4.006;2023-06-10T08:06:38;101390.56;;;25.28;46.10
29417;BME280;28421;51.030;4.006;2023-06-10T08:09:03;101392.53;;;25.33;45.23
29417;BME280;28421;51.030;4.006;2023-06-10T08:11:29;101391.19;;;25.35;45.31
29417;BME280;28421;51.030;4.006;2023-06-10T08:13:55;101393.59;;;25.53;45.26
29417;BME280;28421;51.030;4.006;2023-06-10T08:16:20;101400.97;;;25.75;44.86
29417;BME280;28421;51.030;4.006;2023-06-10T08:18:46;101378.88;;;25.70;44.58
29417;BME280;28421;51.030;4.006;2023-06-10T08:21:11;101346.50;;;25.28;44.09
29417;BME280;28421;51.030;4.006;2023-06-10T08:23:37;101392.94;;;25.95;44.43
29417;BME280;28421;51.030;4.006;2023-06-10T08:26:02;101392.00;;;26.17;43.75
29417;BME280;28421;51.030;4.006;2023-06-10T08:28:28;101390.38;;;26.16;43.71
29417;BME280;28421;51.030;4.006;2023-06-10T08:30:53;101390.69;;;26.24;42.93
29417;BME280;28421;51.030;4.006;2023-06-10T08:33:18;101389.66;;;25.98;42.57
29417;BME280;28421;51.030;4.006;2023-06-10T08:35:44;101345.03;;;25.96;43.77
29417;BME280;28421;51.030;4.006;2023-06-10T08:38:09;101390.38;;;26.16;43.43
29417;BME280;28421;51.030;4.006;2023-06-10T08:40:35;101387.22;;;26.34;42.94
29417;BME280;28421;51.030;4.006;2023-06-10T08:43:06;101400.00;;;26.45;42.32
29417;BME280;28421;51.030;4.006;2023-06-10T08:45:35;101386.34;;;26.66;42.40
29417;BME280;28421;51.030;4.006;2023-06-10T08:48:03;101405.03;;;27.01;43.42
29417;BME280;28421;51.030;4.006;2023-06-10T08:50:36;101385.13;;;26.94;41.99
29417;BME280;28421;51.030;4.006;2023-06-10T08:53:04;101396.00;;;27.16;41.68
29417;BME280;28421;51.030;4.006;2023-06-10T08:55:32;101391.06;;;27.23;40.94
29417;BME280;28421;51.030;4.006;2023-06-10T08:58:00;101376.97;;;27.24;40.72
29417;BME280;28421;51.030;4.006;2023-06-10T09:00:26;101395.84;;;27.38;39.40
29417;BME280;28421;51.030;4.006;2023-06-10T09:02:52;101382.31;;;27.51;39.58
29417;BME280;28421;51.030;4.006;2023-06-10T09:05:18;101359.41;;;27.51;39.64
29417;BME280;28421;51.030;4.006;2023-06-10T09:07:46;101395.97;;;28.04;40.30
29417;BME280;28421;51.030;4.006;2023-06-10T09:10:13;101386.50;;;27.64;38.59
29417;BME280;28421;51.030;4.006;2023-06-10T09:12:38;101378.53;;;27.73;39.32
29417;BME280;28421;51.030;4.006;2023-06-10T09:15:05;101368.28;;;27.79;37.96
29417;BME280;28421;51.030;4.006;2023-06-10T09:17:31;101371.34;;;27.82;38.58
29417;BME280;28421;51.030;4.006;2023-06-10T09:19:57;101379.13;;;27.95;37.62
29417;BME280;28421;51.030;4.006;2023-06-10T09:22:23;101347.03;;;27.84;38.26
29417;BME280;28421;51.030;4.006;2023-06-10T09:24:49;101365.03;;;28.12;38.88
29417;BME280;28421;51.030;4.006;2023-06-10T09:27:15;101371.63;;;28.27;38.56
29417;BME280;28421;51.030;4.006;2023-06-10T09:29:52;101399.00;;;28.59;36.71
29417;BME280;28421;51.030;4.006;2023-06-10T09:32:18;101400.13;;;28.53;36.71
29417;BME280;28421;51.030;4.006;2023-06-10T09:34:45;101390.69;;;28.28;36.98
29417;BME280;28421;51.030;4.006;2023-06-10T09:37:10;101378.53;;;28.34;37.36
29417;BME280;28421;51.030;4.006;2023-06-10T09:39:37;101376.63;;;28.40;35.73
29417;BME280;28421;51.030;4.006;2023-06-10T09:42:15;101389.06;;;28.58;37.09
29417;BME280;28421;51.030;4.006;2023-06-10T09:44:41;101400.69;;;28.55;37.86
29417;BME280;28421;51.030;4.006;2023-06-10T09:47:07;101395.38;;;28.68;35.67
29417;BME280;28421;51.030;4.006;2023-06-10T09:49:32;101394.28;;;28.69;35.04
29417;BME280;28421;51.030;4.006;2023-06-10T09:51:57;101385.97;;;28.80;34.83
29417;BME280;28421;51.030;4.006;2023-06-10T09:54:23;101394.22;;;28.85;34.48
29417;BME280;28421;51.030;4.006;2023-06-10T09:56:51;101369.31;;;28.95;33.82
29417;BME280;28421;51.030;4.006;2023-06-10T09:59:28;101389.03;;;29.43;35.27
29417;BME280;28421;51.030;4.006;2023-06-10T10:01:58;101393.44;;;29.49;32.79
29417;BME280;28421;51.030;4.006;2023-06-10T10:04:26;101381.88;;;29.37;33.41
29417;BME280;28421;51.030;4.006;2023-06-10T10:06:52;101383.56;;;29.28;32.13
29417;BME280;28421;51.030;4.006;2023-06-10T10:09:18;101385.97;;;29.50;33.72
29417;BME280;28421;51.030;4.006;2023-06-10T10:11:44;101383.03;;;29.26;32.25
29417;BME280;28421;51.030;4.006;2023-06-10T10:14:11;101391.69;;;29.09;32.66
29417;BME280;28421;51.030;4.006;2023-06-10T10:16:41;101393.22;;;29.35;33.21
29417;BME280;28421;51.030;4.006;2023-06-10T10:19:20;101387.03;;;29.54;32.77
29417;BME280;28421;51.030;4.006;2023-06-10T10:21:52;101388.50;;;29.85;33.19
29417;BME280;28421;51.030;4.006;2023-06-10T10:24:21;101386.53;;;29.91;32.47
29417;BME280;28421;51.030;4.006;2023-06-10T10:26:48;101372.38;;;29.53;32.37
29417;BME280;28421;51.030;4.006;2023-06-10T10:29:38;101385.38;;;29.97;32.95
29417;BME280;28421;51.030;4.006;2023-06-10T10:32:06;101361.28;;;29.92;31.83
29417;BME280;28421;51.030;4.006;2023-06-10T10:34:41;101382.91;;;30.30;31.36
29417;BME280;28421;51.030;4.006;2023-06-10T10:37:09;101379.88;;;30.26;31.91
29417;BME280;28421;51.030;4.006;2023-06-10T10:39:36;101356.88;;;30.26;30.43
29417;BME280;28421;51.030;4.006;2023-06-10T10:42:03;101362.97;;;29.88;30.27
29417;BME280;28421;51.030;4.006;2023-06-10T10:44:30;101338.81;;;29.60;30.39
29417;BME280;28421;51.030;4.006;2023-06-10T10:46:56;101367.97;;;30.26;30.77
29417;BME280;28421;51.030;4.006;2023-06-10T10:49:27;101320.19;;;30.00;29.43
29417;BME280;28421;51.030;4.006;2023-06-10T10:51:59;101362.97;;;30.28;29.39
29417;BME280;28421;51.030;4.006;2023-06-10T10:54:33;101342.94;;;30.31;29.53
29417;BME280;28421;51.030;4.006;2023-06-10T10:57:19;101316.78;;;30.08;30.30
29417;BME280;28421;51.030;4.006;2023-06-10T11:02:42;101348.31;;;30.99;30.08
29417;BME280;28421;51.030;4.006;2023-06-10T11:05:14;101340.38;;;30.63;29.41
29417;BME280;28421;51.030;4.006;2023-06-10T11:07:40;101331.78;;;30.65;28.51
29417;BME280;28421;51.030;4.006;2023-06-10T11:10:07;101339.31;;;30.59;29.09
29417;BME280;28421;51.030;4.006;2023-06-10T11:15:08;101313.88;;;31.19;27.53
29417;BME280;28421;51.030;4.006;2023-06-10T11:17:33;101318.72;;;31.32;27.56
29417;BME280;28421;51.030;4.006;2023-06-10T11:19:59;101327.88;;;31.33;27.33
29417;BME280;28421;51.030;4.006;2023-06-10T11:22:25;101336.38;;;31.60;27.15
29417;BME280;28421;51.030;4.006;2023-06-10T11:24:51;101329.34;;;31.63;26.65
29417;BME280;28421;51.030;4.006;2023-06-10T11:27:23;101278.50;;;30.39;27.06
29417;BME280;28421;51.030;4.006;2023-06-10T11:32:30;101319.63;;;31.23;25.51
29417;BME280;28421;51.030;4.006;2023-06-10T11:34:58;101316.00;;;31.46;27.08
29417;BME280;28421;51.030;4.006;2023-06-10T11:37:23;101318.69;;;31.70;27.03
29417;BME280;28421;51.030;4.006;2023-06-10T11:39:53;101319.63;;;31.79;26.97
29417;BME280;28421;51.030;4.006;2023-06-10T11:42:19;101315.41;;;31.30;26.91
29417;BME280;28421;51.030;4.006;2023-06-10T11:44:49;101302.16;;;31.22;25.79
29417;BME280;28421;51.030;4.006;2023-06-10T11:47:15;101325.66;;;31.67;25.32
29417;BME280;28421;51.030;4.006;2023-06-10T11:49:40;101298.38;;;31.88;25.67
29417;BME280;28421;51.030;4.006;2023-06-10T11:52:06;101307.72;;;31.60;25.11
29417;BME280;28421;51.030;4.006;2023-06-10T11:54:31;101312.00;;;31.90;25.82
29417;BME280;28421;51.030;4.006;2023-06-10T11:56:58;101323.72;;;32.33;26.08
29417;BME280;28421;51.030;4.006;2023-06-10T11:59:28;101310.16;;;31.80;24.62
29417;BME280;28421;51.030;4.006;2023-06-10T12:01:54;101277.69;;;31.62;24.06
29417;BME280;28421;51.030;4.006;2023-06-10T12:04:20;101290.06;;;31.69;24.26
29417;BME280;28421;51.030;4.006;2023-06-10T12:06:50;101302.28;;;31.87;25.42
29417;BME280;28421;51.030;4.006;2023-06-10T12:09:27;101311.84;;;31.62;24.84
29417;BME280;28421;51.030;4.006;2023-06-10T12:12:00;101248.66;;;31.35;24.69
29417;BME280;28421;51.030;4.006;2023-06-10T12:17:12;101313.34;;;31.74;25.92
29417;BME280;28421;51.030;4.006;2023-06-10T12:19:38;101302.84;;;31.52;24.73
29417;BME280;28421;51.030;4.006;2023-06-10T12:22:04;101276.38;;;32.06;24.66
29417;BME280;28421;51.030;4.006;2023-06-10T12:24:30;101279.09;;;32.25;25.92
29417;BME280;28421;51.030;4.006;2023-06-10T12:26:55;101301.38;;;32.38;25.35
29417;BME280;28421;51.030;4.006;2023-06-10T12:29:23;101311.25;;;31.84;23.84
29417;BME280;28421;51.030;4.006;2023-06-10T12:32:02;101275.53;;;31.91;24.21
29417;BME280;28421;51.030;4.006;2023-06-10T12:34:38;101297.16;;;31.95;25.01
29417;BME280;28421;51.030;4.006;2023-06-10T12:37:07;101296.00;;;32.28;24.77
29417;BME280;28421;51.030;4.006;2023-06-10T12:39:38;101269.88;;;31.45;24.49
29417;BME280;28421;51.030;4.006;2023-06-10T12:42:04;101290.09;;;32.16;25.18
29417;BME280;28421;51.030;4.006;2023-06-10T12:44:35;101269.16;;;32.05;24.70
29417;BME280;28421;51.030;4.006;2023-06-10T12:47:07;101277.97;;;32.67;24.08
29417;BME280;28421;51.030;4.006;2023-06-10T12:49:33;101283.50;;;33.08;24.58
29417;BME280;28421;51.030;4.006;2023-06-10T12:52:00;101287.34;;;32.99;23.36
29417;BME280;28421;51.030;4.006;2023-06-10T12:54:26;101287.56;;;33.02;24.08
29417;BME280;28421;51.030;4.006;2023-06-10T12:56:51;101284.38;;;33.31;24.14
29417;BME280;28421;51.030;4.006;2023-06-10T12:59:18;101280.16;;;32.98;23.15
29417;BME280;28421;51.030;4.006;2023-06-10T13:01:49;101274.59;;;33.20;24.03
29417;BME280;28421;51.030;4.006;2023-06-10T13:04:16;101266.72;;;32.86;23.88
29417;BME280;28421;51.030;4.006;2023-06-10T13:06:41;101258.81;;;32.65;23.09